EGCCLSZA

Guest
Details From EGCC - Manchester Intl
To LSZA - Lugano
Flight Number -
Tags decoded
Created
Modified
Stats Distance 644 nm / 1,192 km
Max Altitude 0 ft / 0 m
Waypoints 6
Social Downloads 1
Likes 0
Share VATSIM

Download

Looking for another format? Having issues loading an existing format? Contact us
Advertisement - Login to hide

Notes

Requested: EGCC SOVAT PODUK IXORA ZA552 LSZA

Route

EGCC SOVAT PODUK IXORA ZA552 LSZA

ID Type Via Altitude Latitude Longitude Leg Dist Tot Dist Heading (true) Name
O EGCC APT - 0 ft / 0 m 53.34714˚ -2.28395˚ - 0 nm - Manchester Intl
SOVAT FIX - 0 ft / 0 m 50.77944˚ 1.46667˚ 207 nm 207 nm 137° / 140° -
PODUK FIX - 0 ft / 0 m 49.24611˚ 3.35056˚ 117 nm 324 nm 141° / 142° -
IXORA FIX - 0 ft / 0 m 45.83667˚ 8.58889˚ 294 nm 619 nm 132° / 136° -
ZA552 FIX - 0 ft / 0 m 45.77139˚ 8.79694˚ 9 nm 628 nm 114° / 114° -
O LSZA APT - 0 ft / 0 m 46.00427˚ 8.91058˚ 14 nm 643 nm 19° / 19° Lugano

Altitude Profile

Advertisement - Login to hide

Weather


0- 5 10 15 20 25 30 35+ Temperature / ° C

Clouds and Precipitation
Forecast for 2018-05-21 12:00 UTC. Updated 35 minutes ago

Ground ~20,000 ft ~40,000 ft Winds

EGCC

Details ICAO EGCC (MAN)
Name Manchester Intl
Region United Kingdom
Timezone Europe/London (UTC+1.0)
Stats Elevation 257 ft / 78 m (AMSL)
Location 53.347141° -2.283954°
Runways 2
Magnetic Variation 1.393° W

METAR

EGCC 211120Z AUTO 22004KT 140V290 9999 NCD 21/04 Q1018 NOSIG

Decode

TAF

TAF EGCC 211102Z 2112/2218 VRB03KT CAVOK BECMG 2115/2118 33010KT PROB30 TEMPO 2115/2120 8000 SHRA PROB30 2201/2208 6000 BECMG 2203/2206 03004KT

Decode

Departure Runways

ID Width Length Bearing (true) Bearing (mag) Surface Threshold Offset Overrun Length
05L 151 ft / 46 m 9,981 ft / 3,042 m 50.99° 52.38° Asphalt 1,401 ft / 427 m 0 ft / 0 m
05R 151 ft / 46 m 9,952 ft / 3,033 m 50.97° 52.36° Asphalt 0 ft / 0 m 26 ft / 8 m
23L 151 ft / 46 m 9,952 ft / 3,033 m 231.00° 232.39° Asphalt 561 ft / 171 m 0 ft / 0 m
23R 151 ft / 46 m 9,981 ft / 3,042 m 231.02° 232.41° Asphalt 597 ft / 182 m 0 ft / 0 m

LSZA

Details ICAO LSZA (LUG)
Name Lugano
Region Switzerland
Timezone Europe/Zurich (UTC+2.0)
Stats Elevation 915 ft / 279 m (AMSL)
Location 46.004275° 8.910579°
Runways 1
Magnetic Variation 2.474° E

METAR

LSZA 211120Z 18003KT 130V220 9999 FEW060 BKN120 18/13 Q1017 NOSIG

Decode

TAF

Not found

Destination Runways

ID Width Length Bearing (true) Bearing (mag) Surface Threshold Offset Overrun Length
01 98 ft / 30 m 4,430 ft / 1,350 m 18.79° 16.32° Asphalt 361 ft / 110 m 0 ft / 0 m
19 98 ft / 30 m 4,430 ft / 1,350 m 198.79° 196.32° Asphalt 673 ft / 205 m 0 ft / 0 m

Approach Navaids

Runway Type Ident Frequency Range Bearing (true) Bearing (mag) Slope Elevation
01 Localiser ILU 111.50 MHz 18 nm / 33 km 18.79° 16.32° - 928 ft / 283 m (AMSL)
01 Glidescope ILU 111.50 MHz 10 nm / 19 km 19.99° 17.52° 6.00° 928 ft / 283 m (AMSL)
01 DME ILU 111.50 MHz 18 nm / 33 km - - - 928 ft / 283 m (AMSL)

Popular Alternatives